Time;durP1;ratioP1;P1;durP2;ratioP2;P2;SDS_P1;SDS_P2;PMS_P1;PMS_P2;Temp;Humidity;BMP_temperature;BMP_pressure;BME280_temperature;BME280_humidity;BME280_pressure;Samples;Min_cycle;Max_cycle;Signal;HPM_P1;HPM_P2
2022/03/31 00:02:09;;;;;;;3.78;2.10;;;11.50;56.10;;;;;;4985646;28;20035;-83
2022/03/31 00:04:37;;;;;;;4.00;2.03;;;11.50;56.10;;;;;;4992366;28;20166;-83
2022/03/31 00:07:04;;;;;;;2.78;1.80;;;11.50;56.10;;;;;;5001957;28;20034;-83
2022/03/31 00:09:30;;;;;;;4.33;2.10;;;11.50;56.10;;;;;;5013369;28;20037;-83
2022/03/31 00:11:58;;;;;;;5.38;2.28;;;11.50;56.20;;;;;;5008212;28;20498;-83
2022/03/31 00:14:24;;;;;;;3.13;1.95;;;11.50;56.30;;;;;;4980598;28;20038;-83
2022/03/31 00:16:49;;;;;;;3.57;2.17;;;11.50;56.40;;;;;;4989216;28;20104;-83
2022/03/31 00:19:15;;;;;;;3.60;2.00;;;11.50;56.50;;;;;;5014873;28;20025;-83
2022/03/31 00:21:41;;;;;;;2.80;1.67;;;11.50;56.60;;;;;;4989895;28;20107;-83
2022/03/31 00:24:07;;;;;;;2.50;1.70;;;11.50;56.60;;;;;;5000341;28;20088;-83
2022/03/31 00:26:33;;;;;;;3.20;1.70;;;11.40;56.50;;;;;;5013485;28;20045;-83
2022/03/31 00:28:59;;;;;;;2.85;1.88;;;11.50;56.50;;;;;;5017061;28;20441;-83
2022/03/31 00:31:24;;;;;;;3.17;1.87;;;11.50;56.50;;;;;;4998774;28;20484;-83
2022/03/31 00:33:50;;;;;;;2.60;1.70;;;11.50;56.50;;;;;;4994122;28;20034;-83
2022/03/31 00:36:15;;;;;;;2.53;1.77;;;11.50;56.50;;;;;;4983699;28;20117;-83
2022/03/31 00:39:28;;;;;;;2.60;1.80;;;11.50;56.30;;;;;;5000567;28;20022;-83
2022/03/31 00:41:27;;;;;;;2.60;1.60;;;11.40;56.10;;;;;;4995978;28;20049;-83
2022/03/31 00:43:54;;;;;;;2.28;1.73;;;11.40;56.10;;;;;;5016607;28;20482;-83
2022/03/31 00:46:23;;;;;;;2.63;1.80;;;11.40;56.20;;;;;;4967460;28;20040;-83
2022/03/31 00:48:48;;;;;;;2.40;1.70;;;11.30;56.30;;;;;;4994074;28;20441;-84
2022/03/31 00:51:14;;;;;;;2.53;1.83;;;11.30;56.00;;;;;;4993543;28;20285;-82
2022/03/31 00:53:40;;;;;;;2.22;1.48;;;11.30;56.00;;;;;;4993518;28;20682;-83
2022/03/31 00:56:06;;;;;;;2.33;1.60;;;11.20;56.10;;;;;;5015950;28;20034;-83
2022/03/31 00:58:33;;;;;;;2.08;1.58;;;11.20;55.70;;;;;;5013141;28;20558;-83
2022/03/31 01:00:58;;;;;;;2.45;1.60;;;11.10;55.60;;;;;;5002299;28;20044;-83
2022/03/31 01:03:24;;;;;;;2.73;1.80;;;11.10;55.60;;;;;;4966386;28;20021;-82
2022/03/31 01:05:51;;;;;;;2.72;1.80;;;11.00;55.60;;;;;;5002261;28;20026;-82
2022/03/31 01:08:17;;;;;;;2.53;1.73;;;11.00;55.80;;;;;;4974656;28;20315;-82
2022/03/31 01:10:46;;;;;;;3.80;2.03;;;10.90;56.50;;;;;;5001087;28;20165;-82
2022/03/31 01:13:12;;;;;;;2.57;1.73;;;10.90;56.00;;;;;;4997042;28;20026;-82
2022/03/31 01:15:38;;;;;;;3.47;2.10;;;10.80;55.90;;;;;;4997830;28;20088;-82
2022/03/31 01:18:05;;;;;;;2.40;1.50;;;10.80;56.10;;;;;;4964787;28;20030;-82
2022/03/31 01:20:31;;;;;;;2.90;1.80;;;10.80;56.00;;;;;;4990936;28;20022;-82
2022/03/31 01:22:57;;;;;;;2.85;1.60;;;10.80;56.10;;;;;;4993802;28;20293;-82
2022/03/31 01:25:22;;;;;;;2.30;1.70;;;10.80;56.20;;;;;;5013395;28;20112;-82
2022/03/31 01:27:48;;;;;;;2.92;1.70;;;10.70;56.30;;;;;;5016628;28;20464;-82
2022/03/31 01:30:17;;;;;;;3.95;1.70;;;10.70;56.40;;;;;;5005962;28;20045;-82
2022/03/31 01:32:44;;;;;;;3.00;1.70;;;10.70;56.50;;;;;;5005627;28;20311;-82
2022/03/31 01:35:11;;;;;;;3.88;1.98;;;10.70;56.50;;;;;;4973226;28;20079;-83
2022/03/31 01:37:37;;;;;;;3.40;2.13;;;10.70;56.50;;;;;;5014385;28;20625;-82
2022/03/31 01:40:04;;;;;;;2.72;1.90;;;10.60;56.50;;;;;;4992362;28;20353;-82
2022/03/31 01:42:30;;;;;;;2.70;1.90;;;10.70;56.60;;;;;;4985703;28;20251;-83
2022/03/31 01:44:56;;;;;;;3.17;2.00;;;10.60;56.50;;;;;;5000124;28;20033;-82
2022/03/31 01:47:22;;;;;;;2.97;1.80;;;10.60;56.80;;;;;;4996227;28;20092;-82
2022/03/31 01:49:48;;;;;;;2.55;1.88;;;10.60;56.80;;;;;;5000019;28;20029;-82
2022/03/31 01:52:14;;;;;;;2.80;1.90;;;10.60;56.80;;;;;;4984354;28;20029;-82
2022/03/31 01:54:39;;;;;;;2.42;1.65;;;10.60;56.90;;;;;;4987772;28;21853;-82
2022/03/31 01:57:05;;;;;;;3.27;1.87;;;10.60;56.90;;;;;;4997453;28;20037;-82
2022/03/31 01:59:41;;;;;;;2.92;1.92;;;10.60;56.80;;;;;;5013108;28;20322;-82
2022/03/31 02:02:07;;;;;;;3.00;2.03;;;10.50;57.20;;;;;;4990433;28;20103;-82
2022/03/31 02:04:33;;;;;;;3.25;2.00;;;10.50;56.80;;;;;;4983276;28;20424;-82
2022/03/31 02:06:59;;;;;;;2.97;2.03;;;10.50;56.80;;;;;;4994463;28;20034;-82
2022/03/31 02:09:25;;;;;;;3.28;2.10;;;10.40;56.70;;;;;;5012648;28;20318;-82
2022/03/31 02:11:52;;;;;;;2.65;1.85;;;10.40;56.80;;;;;;4986041;28;20056;-82
2022/03/31 02:14:19;;;;;;;3.08;1.90;;;10.30;56.70;;;;;;5002629;28;21623;-83
2022/03/31 02:16:46;;;;;;;2.67;1.80;;;10.30;56.80;;;;;;4999495;28;20025;-82
2022/03/31 02:19:12;;;;;;;2.57;1.90;;;10.20;56.70;;;;;;5000601;28;20026;-83
2022/03/31 02:21:38;;;;;;;3.90;2.30;;;10.20;56.80;;;;;;4964880;28;20455;-82
2022/03/31 02:24:04;;;;;;;3.33;2.00;;;10.20;56.90;;;;;;4993895;28;20101;-82
2022/03/31 02:26:29;;;;;;;3.53;2.20;;;10.10;57.00;;;;;;4989112;28;20369;-82
2022/03/31 02:28:55;;;;;;;2.95;2.10;;;10.10;57.10;;;;;;5001468;28;20053;-82
2022/03/31 02:31:21;;;;;;;3.60;2.10;;;10.10;57.10;;;;;;5011758;28;20158;-82
2022/03/31 02:33:46;;;;;;;3.50;1.90;;;10.10;57.30;;;;;;4983537;28;20033;-81
2022/03/31 02:36:12;;;;;;;3.90;1.97;;;10.10;57.50;;;;;;5000704;28;20552;-82
2022/03/31 02:38:38;;;;;;;3.67;2.03;;;10.10;57.50;;;;;;4991631;28;20022;-82
2022/03/31 02:41:05;;;;;;;4.03;2.20;;;10.10;57.50;;;;;;4997806;28;20034;-82
2022/03/31 02:43:31;;;;;;;3.15;1.98;;;10.10;57.60;;;;;;4973000;28;20303;-82
2022/03/31 02:45:58;;;;;;;3.78;2.30;;;10.10;57.60;;;;;;4982203;28;20032;-82
2022/03/31 02:48:24;;;;;;;3.67;2.23;;;10.10;57.70;;;;;;5013290;28;20087;-82
2022/03/31 02:50:49;;;;;;;2.70;1.73;;;10.10;57.70;;;;;;4998303;28;20025;-82
2022/03/31 02:56:00;;;;;;;3.13;1.93;;;10.10;57.80;;;;;;5013093;28;20276;-82
2022/03/31 02:58:26;;;;;;;2.58;1.88;;;10.10;57.50;;;;;;4988106;28;20311;-83
2022/03/31 03:00:51;;;;;;;3.00;2.00;;;10.10;57.60;;;;;;5002245;28;20034;-82
2022/03/31 03:03:17;;;;;;;3.17;1.97;;;10.10;57.80;;;;;;4998997;28;20034;-82
2022/03/31 03:05:45;;;;;;;3.83;2.45;;;10.10;57.80;;;;;;4985676;28;20030;-81
2022/03/31 03:08:11;;;;;;;3.80;2.10;;;10.00;57.80;;;;;;5005186;28;20042;-82
2022/03/31 03:10:37;;;;;;;3.38;2.17;;;10.00;57.70;;;;;;4976390;28;20033;-82
2022/03/31 03:13:03;;;;;;;2.90;2.10;;;10.00;57.90;;;;;;4998115;28;20159;-81
2022/03/31 03:15:29;;;;;;;3.00;2.00;;;9.90;58.00;;;;;;4977783;28;20327;-83
2022/03/31 03:17:54;;;;;;;3.72;2.30;;;9.90;57.80;;;;;;5019122;28;20092;-82
2022/03/31 03:20:24;;;;;;;3.27;2.00;;;9.90;58.10;;;;;;5015413;28;20120;-81
2022/03/31 03:22:51;;;;;;;3.05;1.90;;;9.90;58.00;;;;;;4986024;28;20065;-82
2022/03/31 03:25:19;;;;;;;2.95;1.90;;;9.80;58.40;;;;;;4989448;28;20107;-81
2022/03/31 03:27:46;;;;;;;2.33;1.50;;;9.80;58.50;;;;;;5002646;28;20069;-83
2022/03/31 03:30:13;;;;;;;2.15;1.60;;;9.70;58.40;;;;;;4985195;28;20026;-82
2022/03/31 03:32:38;;;;;;;3.00;1.70;;;9.60;58.40;;;;;;5018355;28;20046;-83
2022/03/31 03:35:05;;;;;;;2.28;1.55;;;9.60;59.20;;;;;;5001047;28;20030;-81
2022/03/31 03:37:31;;;;;;;2.58;1.77;;;9.50;58.60;;;;;;5016802;28;20247;-83
2022/03/31 03:39:57;;;;;;;3.50;2.03;;;9.50;58.50;;;;;;4970549;28;20036;-81
2022/03/31 03:42:23;;;;;;;3.42;2.10;;;9.50;58.80;;;;;;5000816;28;20124;-83
2022/03/31 03:44:48;;;;;;;3.17;1.67;;;9.40;58.40;;;;;;5002336;28;20048;-82
2022/03/31 03:47:14;;;;;;;3.37;1.90;;;9.40;58.60;;;;;;4986445;28;20041;-82
2022/03/31 03:49:41;;;;;;;2.53;1.73;;;9.40;58.90;;;;;;5003591;28;20028;-82
2022/03/31 03:52:07;;;;;;;2.13;1.60;;;9.30;59.00;;;;;;4983488;28;20301;-83
2022/03/31 03:54:33;;;;;;;2.22;1.70;;;9.30;59.10;;;;;;4986408;28;20254;-83
2022/03/31 03:56:58;;;;;;;1.60;1.50;;;9.30;59.00;;;;;;5001527;28;20473;-81
2022/03/31 03:59:24;;;;;;;2.53;1.50;;;9.30;59.10;;;;;;5015605;28;20226;-82
2022/03/31 04:01:50;;;;;;;2.58;1.77;;;9.20;59.00;;;;;;4976928;28;20379;-80
2022/03/31 04:04:16;;;;;;;1.90;1.37;;;9.20;59.10;;;;;;4998261;28;20360;-82
2022/03/31 04:06:42;;;;;;;3.20;1.50;;;9.20;59.40;;;;;;5018004;28;20331;-81
2022/03/31 04:09:08;;;;;;;1.83;1.25;;;9.10;58.90;;;;;;4999396;28;20041;-81
2022/03/31 04:11:34;;;;;;;2.00;1.10;;;9.00;58.60;;;;;;4980246;28;20735;-81
2022/03/31 04:13:59;;;;;;;0.98;0.88;;;9.00;58.70;;;;;;4999949;28;20132;-81
2022/03/31 04:16:25;;;;;;;0.97;0.97;;;8.90;58.60;;;;;;4998816;28;20032;-82
2022/03/31 04:18:51;;;;;;;1.15;1.00;;;8.80;58.60;;;;;;4986778;28;20034;-82
2022/03/31 04:21:16;;;;;;;1.20;0.80;;;8.70;59.40;;;;;;5014677;28;20029;-82
2022/03/31 04:23:42;;;;;;;1.10;1.00;;;8.60;58.50;;;;;;5002226;28;20482;-82
2022/03/31 04:26:08;;;;;;;2.13;1.00;;;8.50;58.60;;;;;;5001202;28;20167;-83
2022/03/31 04:28:34;;;;;;;1.27;1.15;;;8.50;58.80;;;;;;5000234;28;20585;-82
2022/03/31 04:31:00;;;;;;;1.65;0.80;;;8.40;58.70;;;;;;4986904;28;20033;-83
2022/03/31 04:33:28;;;;;;;1.43;1.00;;;8.30;58.70;;;;;;5006685;28;20461;-82
2022/03/31 04:35:54;;;;;;;1.30;1.10;;;8.20;58.80;;;;;;4984422;28;20036;-83
2022/03/31 04:38:20;;;;;;;1.13;1.00;;;8.10;59.00;;;;;;4997623;28;20034;-81
2022/03/31 04:40:46;;;;;;;0.80;0.80;;;8.00;59.10;;;;;;5017857;28;20417;-81
2022/03/31 04:43:11;;;;;;;0.80;0.70;;;7.90;59.00;;;;;;4959294;28;20630;-82
2022/03/31 04:45:37;;;;;;;0.83;0.83;;;7.80;59.10;;;;;;5018272;28;20068;-82
2022/03/31 04:48:03;;;;;;;1.00;0.90;;;7.80;59.10;;;;;;4997152;28;20620;-81
2022/03/31 04:50:29;;;;;;;1.15;0.80;;;7.70;59.50;;;;;;4996946;28;20850;-80
2022/03/31 04:52:54;;;;;;;1.43;0.90;;;7.60;59.40;;;;;;5001324;28;20033;-80
2022/03/31 04:55:20;;;;;;;1.00;0.90;;;7.50;59.10;;;;;;4997729;28;20141;-80
2022/03/31 04:57:46;;;;;;;0.90;0.80;;;7.50;59.30;;;;;;4984453;28;20042;-82
2022/03/31 05:00:13;;;;;;;0.90;0.80;;;7.40;59.30;;;;;;4992061;28;20037;-80
2022/03/31 05:02:38;;;;;;;1.00;0.90;;;7.30;60.00;;;;;;4997084;28;20032;-81
2022/03/31 05:05:05;;;;;;;0.97;0.80;;;7.10;59.80;;;;;;4990516;28;20038;-81
2022/03/31 05:07:31;;;;;;;0.85;0.80;;;7.00;59.60;;;;;;4984799;28;20247;-81
2022/03/31 05:09:56;;;;;;;1.10;0.90;;;6.90;59.90;;;;;;5004942;28;20034;-81
2022/03/31 05:12:22;;;;;;;0.93;0.87;;;6.90;60.10;;;;;;4995013;28;20550;-80
2022/03/31 05:14:47;;;;;;;0.70;0.70;;;6.80;60.40;;;;;;5003792;28;20203;-81
2022/03/31 05:17:13;;;;;;;0.80;0.80;;;6.80;60.60;;;;;;4978187;28;20049;-80
2022/03/31 05:19:39;;;;;;;0.90;0.70;;;6.80;60.80;;;;;;4995383;28;20053;-81
2022/03/31 05:22:05;;;;;;;0.80;0.70;;;6.70;60.70;;;;;;5007557;28;20077;-81
2022/03/31 05:24:31;;;;;;;1.45;0.70;;;6.70;60.90;;;;;;4997260;28;20597;-80
2022/03/31 05:26:57;;;;;;;0.83;0.70;;;6.60;61.10;;;;;;5013692;28;20139;-81
2022/03/31 05:29:23;;;;;;;0.90;0.80;;;6.60;61.30;;;;;;4966087;28;20034;-80
2022/03/31 05:31:50;;;;;;;1.02;0.90;;;6.60;61.40;;;;;;4992307;28;20099;-81
2022/03/31 05:34:16;;;;;;;1.00;0.90;;;6.60;61.60;;;;;;4960843;28;20322;-81
2022/03/31 05:36:42;;;;;;;1.60;0.80;;;6.50;61.40;;;;;;4993328;28;20439;-80
2022/03/31 05:39:07;;;;;;;1.02;0.90;;;6.50;61.80;;;;;;4979196;28;20107;-80
2022/03/31 05:41:34;;;;;;;0.80;0.80;;;6.40;61.80;;;;;;4994899;28;20461;-81
2022/03/31 05:44:00;;;;;;;1.20;0.80;;;6.40;61.60;;;;;;4996858;28;20040;-82
2022/03/31 05:46:26;;;;;;;1.10;0.90;;;6.40;61.60;;;;;;4985335;28;20111;-80
2022/03/31 05:48:53;;;;;;;1.10;0.90;;;6.40;62.00;;;;;;4990362;28;20034;-80
2022/03/31 05:51:19;;;;;;;1.10;1.00;;;6.40;62.20;;;;;;4996278;28;20132;-81
2022/03/31 05:53:44;;;;;;;1.00;0.90;;;6.40;62.00;;;;;;4988223;28;20581;-79
2022/03/31 05:56:11;;;;;;;1.10;0.93;;;6.40;62.10;;;;;;5000899;28;20039;-80
2022/03/31 05:58:36;;;;;;;1.50;1.30;;;6.40;61.90;;;;;;4991323;28;20053;-79
2022/03/31 06:01:02;;;;;;;1.30;1.10;;;6.40;62.10;;;;;;4992228;28;20164;-80
2022/03/31 06:03:28;;;;;;;1.52;1.08;;;6.30;62.20;;;;;;4982391;28;20170;-79
2022/03/31 06:05:54;;;;;;;1.70;1.00;;;6.30;62.60;;;;;;4992798;28;20034;-79
2022/03/31 06:08:19;;;;;;;1.77;1.00;;;6.30;63.90;;;;;;4978600;28;20760;-80
2022/03/31 06:10:46;;;;;;;1.52;1.20;;;6.30;63.00;;;;;;5001624;28;20177;-80
2022/03/31 06:13:12;;;;;;;1.52;1.10;;;6.30;63.20;;;;;;5002655;28;20030;-81
2022/03/31 06:15:39;;;;;;;1.33;1.00;;;6.30;63.20;;;;;;4970308;28;20037;-80
2022/03/31 06:18:06;;;;;;;1.17;0.93;;;6.30;63.30;;;;;;4998394;28;20105;-80
2022/03/31 06:20:34;;;;;;;1.30;1.02;;;6.30;63.10;;;;;;4992584;28;20062;-80
2022/03/31 06:23:00;;;;;;;1.42;1.10;;;6.30;64.00;;;;;;4989324;28;20128;-80
2022/03/31 06:25:26;;;;;;;1.25;1.02;;;6.20;63.40;;;;;;4987138;28;20237;-80
2022/03/31 06:27:52;;;;;;;1.30;1.00;;;6.30;63.20;;;;;;4993819;28;20476;-79
2022/03/31 06:30:18;;;;;;;1.20;0.88;;;6.30;63.20;;;;;;5001181;28;20271;-81
2022/03/31 06:32:45;;;;;;;1.50;1.13;;;6.30;63.00;;;;;;4964386;28;20421;-80
2022/03/31 06:35:17;;;;;;;1.70;1.00;;;6.30;63.20;;;;;;4991047;28;20032;-80
2022/03/31 06:37:45;;;;;;;1.48;1.20;;;6.30;63.20;;;;;;4993488;28;20158;-81
2022/03/31 06:40:12;;;;;;;1.02;0.93;;;6.40;63.40;;;;;;4981056;28;20036;-81
2022/03/31 06:42:40;;;;;;;1.15;0.95;;;6.40;63.20;;;;;;5013790;28;20022;-81
2022/03/31 06:45:08;;;;;;;1.00;0.90;;;6.40;64.20;;;;;;4990162;28;20026;-81
2022/03/31 06:47:35;;;;;;;1.60;1.10;;;6.40;63.40;;;;;;5000654;28;20482;-81
2022/03/31 06:50:01;;;;;;;1.38;1.00;;;6.40;63.50;;;;;;4994577;28;20033;-81
2022/03/31 06:52:27;;;;;;;1.00;0.90;;;6.40;63.20;;;;;;4992273;28;20262;-81
2022/03/31 06:54:53;;;;;;;1.23;0.93;;;6.50;63.20;;;;;;5014724;28;20103;-80
2022/03/31 06:57:19;;;;;;;1.00;0.90;;;6.50;63.40;;;;;;4976810;28;20227;-81
2022/03/31 06:59:44;;;;;;;1.40;1.02;;;6.50;63.40;;;;;;5003117;28;20345;-80
2022/03/31 07:02:10;;;;;;;1.57;1.10;;;6.50;63.30;;;;;;4992679;28;20048;-81
2022/03/31 07:04:36;;;;;;;1.70;1.30;;;6.50;63.70;;;;;;4980569;28;20053;-80
2022/03/31 07:07:01;;;;;;;1.30;1.10;;;6.50;63.50;;;;;;5011494;28;20029;-79
2022/03/31 07:09:28;;;;;;;1.90;1.00;;;6.50;63.60;;;;;;4987657;28;20486;-81
2022/03/31 07:11:53;;;;;;;1.65;1.17;;;6.60;63.50;;;;;;4985180;28;20040;-81
2022/03/31 07:14:19;;;;;;;1.63;1.03;;;6.60;64.00;;;;;;4994244;28;20033;-80
2022/03/31 07:16:46;;;;;;;2.38;1.33;;;6.60;63.60;;;;;;5001785;28;20018;-80
2022/03/31 07:19:12;;;;;;;1.52;1.10;;;6.60;63.60;;;;;;4988889;28;20271;-81
2022/03/31 07:21:38;;;;;;;1.63;1.30;;;6.60;63.60;;;;;;4994365;28;20030;-80
2022/03/31 07:24:03;;;;;;;2.78;1.67;;;6.60;63.90;;;;;;4992229;28;20055;-81
2022/03/31 07:26:30;;;;;;;1.42;1.20;;;6.70;64.50;;;;;;5007540;28;20371;-81
2022/03/31 07:28:56;;;;;;;1.40;1.10;;;6.70;64.10;;;;;;5000743;28;20026;-81
2022/03/31 07:31:28;;;;;;;1.75;1.20;;;6.70;63.80;;;;;;4971404;28;20120;-81
2022/03/31 07:33:54;;;;;;;1.40;1.20;;;6.70;64.30;;;;;;5000294;28;20585;-81
2022/03/31 07:36:19;;;;;;;2.45;1.60;;;6.70;64.60;;;;;;4972989;28;20030;-81
2022/03/31 07:38:45;;;;;;;1.97;1.23;;;6.80;64.40;;;;;;5012549;28;20180;-81
2022/03/31 07:41:12;;;;;;;1.60;1.20;;;6.80;63.90;;;;;;4977583;28;20038;-81
2022/03/31 07:43:38;;;;;;;1.50;1.20;;;6.80;64.10;;;;;;4994449;28;20037;-81
2022/03/31 07:46:05;;;;;;;1.50;1.13;;;6.80;64.30;;;;;;4979424;28;20026;-82
2022/03/31 07:48:31;;;;;;;1.73;1.30;;;6.80;64.00;;;;;;5011507;28;20318;-80
2022/03/31 07:50:59;;;;;;;2.47;1.40;;;6.90;64.30;;;;;;4987978;28;20301;-81
2022/03/31 07:53:32;;;;;;;1.70;1.38;;;6.90;65.10;;;;;;4990007;28;21083;-81
2022/03/31 07:56:03;;;;;;;1.38;1.20;;;7.00;64.60;;;;;;4981943;28;20021;-81
2022/03/31 07:58:29;;;;;;;1.92;1.38;;;6.90;64.40;;;;;;4994385;28;20671;-81
2022/03/31 08:00:56;;;;;;;2.73;1.47;;;7.00;64.20;;;;;;4994864;28;20042;-81
2022/03/31 08:03:25;;;;;;;1.58;1.20;;;7.00;64.50;;;;;;5019022;28;20041;-81
2022/03/31 08:05:51;;;;;;;1.98;1.40;;;7.00;64.10;;;;;;4963229;28;20394;-82
2022/03/31 08:08:19;;;;;;;1.55;1.10;;;7.00;64.20;;;;;;4999509;28;20592;-81
2022/03/31 08:10:44;;;;;;;1.77;1.40;;;7.10;64.00;;;;;;4983957;28;20026;-80
2022/03/31 08:13:10;;;;;;;2.33;1.43;;;7.00;63.80;;;;;;4967897;28;20028;-82
2022/03/31 08:15:37;;;;;;;2.10;1.48;;;7.10;64.30;;;;;;4970255;28;20034;-81
2022/03/31 08:18:04;;;;;;;2.00;1.20;;;7.10;64.10;;;;;;4975333;28;20140;-80
2022/03/31 08:20:30;;;;;;;2.38;1.65;;;7.10;64.10;;;;;;4976351;28;20128;-81
2022/03/31 08:22:56;;;;;;;1.97;1.53;;;7.20;64.30;;;;;;4984304;28;20061;-82
2022/03/31 08:25:21;;;;;;;2.28;1.50;;;7.20;64.10;;;;;;4991095;28;20164;-81
2022/03/31 08:27:47;;;;;;;2.67;1.50;;;7.20;64.00;;;;;;4989345;28;20049;-81
2022/03/31 08:30:18;;;;;;;2.53;1.70;;;7.30;63.90;;;;;;4995311;28;20029;-80
2022/03/31 08:32:46;;;;;;;1.70;1.27;;;7.30;65.40;;;;;;4992611;28;20109;-81
2022/03/31 08:35:13;;;;;;;1.90;1.30;;;7.30;64.00;;;;;;5001063;28;20362;-81
2022/03/31 08:37:40;;;;;;;2.58;1.63;;;7.40;64.10;;;;;;4975123;28;20034;-81
2022/03/31 08:40:08;;;;;;;2.00;1.50;;;7.40;64.60;;;;;;4987057;28;20612;-80
2022/03/31 08:42:35;;;;;;;2.13;1.48;;;7.40;64.40;;;;;;4994441;28;20077;-80
2022/03/31 08:45:02;;;;;;;1.92;1.30;;;7.50;64.50;;;;;;4998634;28;20076;-81
2022/03/31 08:47:28;;;;;;;2.08;1.58;;;7.50;64.20;;;;;;4975559;28;20488;-81
2022/03/31 08:49:55;;;;;;;2.25;1.35;;;7.50;64.00;;;;;;4985188;28;20108;-80
2022/03/31 08:52:22;;;;;;;1.97;1.20;;;7.60;64.20;;;;;;4985546;28;20585;-82
2022/03/31 08:54:48;;;;;;;2.20;1.40;;;7.60;64.30;;;;;;4995545;28;20112;-82
2022/03/31 08:57:14;;;;;;;1.90;1.30;;;7.60;64.50;;;;;;4988284;28;20029;-82
2022/03/31 08:59:40;;;;;;;1.60;1.35;;;7.70;64.70;;;;;;4965712;28;20025;-82
2022/03/31 09:02:05;;;;;;;2.07;1.33;;;7.70;64.80;;;;;;4976804;28;20272;-81
2022/03/31 09:04:31;;;;;;;2.08;1.38;;;7.80;64.90;;;;;;4980100;28;20515;-81
2022/03/31 09:07:02;;;;;;;1.97;1.33;;;7.90;64.80;;;;;;4987463;28;20128;-81
2022/03/31 09:09:28;;;;;;;1.42;1.20;;;8.00;65.30;;;;;;4997253;28;20038;-82
2022/03/31 09:11:54;;;;;;;2.17;1.20;;;8.00;64.70;;;;;;4967823;28;20077;-82
2022/03/31 09:14:29;;;;;;;1.95;1.13;;;8.10;64.70;;;;;;4961113;28;20026;-81
2022/03/31 09:16:54;;;;;;;1.30;1.17;;;8.20;65.10;;;;;;5003630;28;20065;-82
2022/03/31 09:19:20;;;;;;;1.40;1.00;;;8.30;64.60;;;;;;4996081;28;20029;-82
2022/03/31 09:21:58;;;;;;;1.25;1.10;;;8.40;64.60;;;;;;4998853;28;20271;-82
2022/03/31 09:24:30;;;;;;;1.10;1.00;;;8.50;64.80;;;;;;4983412;28;20076;-82
2022/03/31 09:26:58;;;;;;;1.15;1.00;;;8.60;64.10;;;;;;4980139;28;20054;-81
2022/03/31 09:29:26;;;;;;;1.50;1.20;;;8.70;64.00;;;;;;4983600;28;20129;-82
2022/03/31 09:31:53;;;;;;;2.45;1.35;;;8.70;63.50;;;;;;4970640;28;20034;-82
2022/03/31 09:34:19;;;;;;;1.75;1.08;;;8.70;63.30;;;;;;4973028;28;20039;-82
2022/03/31 09:36:51;;;;;;;3.20;2.10;;;8.70;63.20;;;;;;4985248;28;20304;-81
2022/03/31 09:39:17;;;;;;;2.22;1.33;;;8.70;63.40;;;;;;4977232;28;20503;-83
2022/03/31 09:41:48;;;;;;;2.10;1.10;;;8.70;63.30;;;;;;5009285;28;20032;-82
2022/03/31 09:44:21;;;;;;;1.60;1.10;;;8.70;63.30;;;;;;4975780;28;20113;-81
2022/03/31 09:46:47;;;;;;;1.65;1.05;;;8.70;63.20;;;;;;4967369;28;20410;-82
2022/03/31 09:49:20;;;;;;;1.10;0.93;;;8.70;63.10;;;;;;4996548;28;20046;-82
2022/03/31 09:51:49;;;;;;;1.30;1.00;;;8.80;63.30;;;;;;4979297;28;20038;-81
2022/03/31 09:54:16;;;;;;;1.35;0.95;;;8.80;63.50;;;;;;4980424;28;20091;-83
2022/03/31 09:56:42;;;;;;;1.42;0.90;;;8.80;63.50;;;;;;4968126;28;20018;-82
2022/03/31 09:59:11;;;;;;;1.27;0.93;;;8.90;63.70;;;;;;4993170;28;20029;-80
2022/03/31 10:01:38;;;;;;;2.03;1.00;;;9.00;63.90;;;;;;4982904;28;20049;-82
2022/03/31 10:04:06;;;;;;;2.08;1.30;;;9.00;63.80;;;;;;4997657;28;20040;-82
2022/03/31 10:06:37;;;;;;;1.60;1.20;;;9.20;63.90;;;;;;4976798;28;20034;-83
2022/03/31 10:09:05;;;;;;;1.83;1.10;;;9.20;63.90;;;;;;4993506;28;20034;-81
2022/03/31 10:11:34;;;;;;;1.75;1.20;;;9.30;63.90;;;;;;4936531;28;20038;-82
2022/03/31 10:14:29;;;;;;;2.47;1.20;;;9.40;63.80;;;;;;4978967;28;20054;-82
2022/03/31 10:16:57;;;;;;;1.52;1.00;;;9.50;63.80;;;;;;4969627;28;20064;-81
2022/03/31 10:19:38;;;;;;;1.98;1.10;;;9.50;63.70;;;;;;5001711;28;20032;-80
2022/03/31 10:25:12;;;;;;;1.55;1.10;;;9.80;64.40;;;;;;4970875;28;20124;-81
2022/03/31 10:27:45;;;;;;;1.73;1.10;;;10.00;64.80;;;;;;4980585;28;20174;-82
2022/03/31 10:30:14;;;;;;;1.50;1.10;;;10.20;65.10;;;;;;5005884;28;20026;-82
2022/03/31 10:32:57;;;;;;;1.60;1.30;;;10.50;64.90;;;;;;4984450;28;20630;-81
2022/03/31 10:35:29;;;;;;;1.90;1.27;;;10.70;63.90;;;;;;4978761;28;20243;-80
2022/03/31 10:37:56;;;;;;;2.00;1.30;;;10.90;63.00;;;;;;4969985;28;20028;-82
2022/03/31 10:40:42;;;;;;;1.17;1.03;;;10.90;62.20;;;;;;4996532;28;20080;-81
2022/03/31 10:43:20;;;;;;;1.33;1.10;;;10.90;61.40;;;;;;4996183;28;20033;-82
2022/03/31 10:45:47;;;;;;;1.20;1.00;;;10.90;61.10;;;;;;5000842;28;20057;-82
2022/03/31 10:48:30;;;;;;;1.50;1.00;;;10.80;61.10;;;;;;4977426;28;20243;-82
2022/03/31 10:51:10;;;;;;;1.52;1.10;;;10.80;60.90;;;;;;4979432;28;20035;-80
2022/03/31 10:53:42;;;;;;;1.50;1.10;;;10.70;61.00;;;;;;4998072;28;20059;-81
2022/03/31 10:56:20;;;;;;;2.03;1.38;;;10.70;60.70;;;;;;4997015;28;20034;-82
2022/03/31 10:58:48;;;;;;;1.40;1.00;;;10.60;60.30;;;;;;4966544;28;20014;-82
2022/03/31 11:01:14;;;;;;;1.65;1.20;;;10.50;60.30;;;;;;5013762;28;20037;-81
2022/03/31 11:03:40;;;;;;;1.30;1.10;;;10.50;60.30;;;;;;4995589;28;20030;-82
2022/03/31 11:06:10;;;;;;;1.67;1.20;;;10.40;60.70;;;;;;4978803;28;20045;-83
2022/03/31 11:08:47;;;;;;;1.23;1.10;;;10.40;61.20;;;;;;4991828;28;20429;-83
2022/03/31 11:11:28;;;;;;;1.75;1.17;;;10.50;62.10;;;;;;5008051;28;20484;-82
2022/03/31 11:13:55;;;;;;;1.23;1.05;;;10.60;62.80;;;;;;4990611;28;20031;-82
2022/03/31 11:16:23;;;;;;;1.90;1.03;;;10.80;63.10;;;;;;4991099;28;20026;-82
2022/03/31 11:18:56;;;;;;;1.65;1.10;;;11.00;63.00;;;;;;4976465;28;20233;-81
2022/03/31 11:21:23;;;;;;;2.05;1.40;;;11.20;62.30;;;;;;4987421;28;20038;-83
2022/03/31 11:23:50;;;;;;;2.15;1.25;;;11.30;62.20;;;;;;4988903;28;20021;-80
2022/03/31 11:26:30;;;;;;;2.33;1.25;;;11.50;62.00;;;;;;4993789;28;20424;-83
2022/03/31 11:28:56;;;;;;;1.90;1.20;;;11.70;61.20;;;;;;4998326;28;20033;-81
2022/03/31 11:31:22;;;;;;;1.50;1.20;;;11.80;60.90;;;;;;5003338;28;20304;-83
2022/03/31 11:33:49;;;;;;;2.45;1.17;;;11.80;60.10;;;;;;4988327;28;20346;-82
2022/03/31 11:36:18;;;;;;;1.63;1.10;;;11.80;59.50;;;;;;4989665;28;20021;-82
2022/03/31 11:38:57;;;;;;;1.55;1.15;;;11.80;59.20;;;;;;4998727;28;20038;-83
2022/03/31 11:41:23;;;;;;;2.17;1.10;;;11.70;58.60;;;;;;4975083;28;20030;-82
2022/03/31 11:43:49;;;;;;;1.92;1.08;;;11.60;58.70;;;;;;4986700;28;20410;-82
2022/03/31 11:46:16;;;;;;;1.38;1.10;;;11.50;58.80;;;;;;4991580;28;20516;-82
2022/03/31 11:48:44;;;;;;;1.65;1.10;;;11.50;58.80;;;;;;4990654;28;20563;-83
2022/03/31 11:51:10;;;;;;;1.63;1.10;;;11.50;59.10;;;;;;4970971;28;20033;-83
2022/03/31 11:53:45;;;;;;;1.50;1.30;;;11.40;59.20;;;;;;4972961;28;20026;-81
2022/03/31 11:56:16;;;;;;;1.65;1.27;;;11.40;59.40;;;;;;4985828;28;20026;-82
2022/03/31 11:58:57;;;;;;;2.13;1.40;;;11.40;59.60;;;;;;4966226;28;20421;-82
2022/03/31 12:01:47;;;;;;;2.80;1.40;;;11.50;59.60;;;;;;4998985;28;20032;-82
2022/03/31 12:04:20;;;;;;;2.00;1.25;;;11.60;59.50;;;;;;4994709;28;20121;-83
2022/03/31 12:06:51;;;;;;;2.23;1.30;;;11.70;59.70;;;;;;4985130;28;20061;-80
2022/03/31 12:09:17;;;;;;;1.75;1.10;;;11.80;59.80;;;;;;4982195;28;20554;-82
2022/03/31 12:11:43;;;;;;;2.53;1.50;;;11.80;59.80;;;;;;4965510;28;20080;-82
2022/03/31 12:14:10;;;;;;;1.92;1.13;;;11.90;59.80;;;;;;4988743;28;20500;-82
2022/03/31 12:16:49;;;;;;;2.10;1.30;;;12.00;59.90;;;;;;5004314;28;20441;-82
2022/03/31 12:19:16;;;;;;;1.30;1.07;;;12.10;59.70;;;;;;4989616;28;20025;-82
2022/03/31 12:21:46;;;;;;;1.75;1.00;;;12.30;59.90;;;;;;4975581;28;20045;-81
2022/03/31 12:24:12;;;;;;;1.30;1.00;;;12.40;59.80;;;;;;5012753;28;20033;-82
2022/03/31 12:26:54;;;;;;;1.50;1.20;;;12.60;60.40;;;;;;4985340;28;20588;-82
2022/03/31 12:29:22;;;;;;;1.60;1.30;;;12.80;60.70;;;;;;4996017;28;20041;-82
2022/03/31 12:31:58;;;;;;;1.80;1.13;;;13.10;60.70;;;;;;4984051;28;20063;-83
2022/03/31 12:34:24;;;;;;;1.65;1.23;;;13.20;60.00;;;;;;4985452;28;20080;-82
2022/03/31 12:36:49;;;;;;;2.30;1.10;;;13.40;59.50;;;;;;4971184;28;20030;-83
2022/03/31 12:39:15;;;;;;;1.73;1.20;;;13.50;58.90;;;;;;4985759;28;20076;-82
2022/03/31 12:41:42;;;;;;;1.63;1.20;;;13.60;58.30;;;;;;4995409;28;20371;-83
2022/03/31 12:44:15;;;;;;;1.90;1.20;;;13.60;57.70;;;;;;5014571;28;20061;-81
2022/03/31 12:46:53;;;;;;;1.90;1.45;;;13.60;56.90;;;;;;4956338;28;20129;-83
2022/03/31 12:49:21;;;;;;;2.30;1.30;;;13.50;56.70;;;;;;4995213;28;20029;-82
2022/03/31 12:51:47;;;;;;;1.50;1.25;;;13.40;56.80;;;;;;4987806;28;20060;-82
2022/03/31 12:54:25;;;;;;;1.23;1.13;;;13.30;57.30;;;;;;5012076;28;20033;-81
2022/03/31 12:56:52;;;;;;;1.80;1.10;;;13.30;56.20;;;;;;4974501;28;20033;-82
2022/03/31 12:59:31;;;;;;;0.95;0.90;;;13.30;56.80;;;;;;4992102;28;20033;-82
2022/03/31 13:02:01;;;;;;;1.33;1.00;;;13.20;56.30;;;;;;4983305;28;20252;-83